Terminal Aerodrome Forecast
Issued by NWS

Home | Current Version | Previous Version | Text Only | Print | Product List | Glossary On
Versions: 1 2 3 4 5 6 7 8 9 10 11 12 13 14 15 16 17 18 19 20 21 22
000
FTUS46 KLOX 060500 RRA
TAFBUR
TAF
KBUR 060543Z 0606/0706 18009KT P6SM SCT035
     FM060800 15006KT P6SM OVC025
     FM061700 17009KT P6SM BKN030
     FM062000 19010KT P6SM BKN035
     FM070300 17008KT P6SM SCT035=

USA.gov is the U.S. government's official web portal to all federal, state and local government web resources and services.